sensor_id;sensor_type;location;lat;lon;timestamp;pressure;altitude;pressure_sealevel;temperature;humidity
48015;BME280;33780;51.034;7.120;2023-05-01T00:00:08;100892.88;;;14.05;57.41
48015;BME280;33780;51.034;7.120;2023-05-01T00:02:34;100901.78;;;14.06;57.68
48015;BME280;33780;51.034;7.120;2023-05-01T00:05:00;100891.03;;;14.06;57.64
48015;BME280;33780;51.034;7.120;2023-05-01T00:07:25;100892.88;;;14.05;57.81
48015;BME280;33780;51.034;7.120;2023-05-01T00:09:53;100887.66;;;14.04;57.85
48015;BME280;33780;51.034;7.120;2023-05-01T00:12:18;100877.72;;;14.04;57.93
48015;BME280;33780;51.034;7.120;2023-05-01T00:14:44;100885.94;;;14.03;57.81
48015;BME280;33780;51.034;7.120;2023-05-01T00:17:09;100882.41;;;14.02;57.67
48015;BME280;33780;51.034;7.120;2023-05-01T00:19:34;100877.03;;;14.02;57.46
48015;BME280;33780;51.034;7.120;2023-05-01T00:21:59;100880.72;;;14.01;57.53
48015;BME280;33780;51.034;7.120;2023-05-01T00:24:25;100876.31;;;14.00;57.80
48015;BME280;33780;51.034;7.120;2023-05-01T00:26:50;100877.19;;;14.01;57.84
48015;BME280;33780;51.034;7.120;2023-05-01T00:29:15;100861.16;;;13.99;57.71
48015;BME280;33780;51.034;7.120;2023-05-01T00:31:41;100861.03;;;14.01;57.90
48015;BME280;33780;51.034;7.120;2023-05-01T00:34:07;100865.69;;;13.99;57.74
48015;BME280;33780;51.034;7.120;2023-05-01T00:36:33;100872.78;;;14.00;57.99
48015;BME280;33780;51.034;7.120;2023-05-01T00:38:58;100864.00;;;13.98;57.77
48015;BME280;33780;51.034;7.120;2023-05-01T00:41:23;100865.53;;;14.00;57.87
48015;BME280;33780;51.034;7.120;2023-05-01T00:43:49;100858.34;;;14.01;57.90
48015;BME280;33780;51.034;7.120;2023-05-01T00:46:14;100854.94;;;13.99;57.86
48015;BME280;33780;51.034;7.120;2023-05-01T00:48:39;100854.78;;;14.00;58.06
48015;BME280;33780;51.034;7.120;2023-05-01T00:51:06;100860.31;;;13.99;58.01
48015;BME280;33780;51.034;7.120;2023-05-01T00:53:35;100845.88;;;14.00;57.79
48015;BME280;33780;51.034;7.120;2023-05-01T00:56:00;100844.91;;;14.01;58.04
48015;BME280;33780;51.034;7.120;2023-05-01T00:58:26;100847.44;;;14.02;57.95
48015;BME280;33780;51.034;7.120;2023-05-01T01:00:51;100844.75;;;14.02;58.00
48015;BME280;33780;51.034;7.120;2023-05-01T01:03:17;100842.06;;;14.02;58.12
48015;BME280;33780;51.034;7.120;2023-05-01T01:05:56;100836.66;;;14.02;58.25
48015;BME280;33780;51.034;7.120;2023-05-01T01:08:30;100832.97;;;14.03;58.65
48015;BME280;33780;51.034;7.120;2023-05-01T01:11:32;100832.81;;;14.05;58.32
48015;BME280;33780;51.034;7.120;2023-05-01T01:14:32;100829.44;;;14.03;59.04
48015;BME280;33780;51.034;7.120;2023-05-01T01:20:16;100830.44;;;14.02;58.85
48015;BME280;33780;51.034;7.120;2023-05-01T01:22:46;100829.59;;;14.01;58.40
48015;BME280;33780;51.034;7.120;2023-05-01T01:28:22;100818.00;;;14.01;58.74
48015;BME280;33780;51.034;7.120;2023-05-01T01:33:49;100817.25;;;13.99;58.73
48015;BME280;33780;51.034;7.120;2023-05-01T01:36:24;100813.72;;;13.98;58.83
48015;BME280;33780;51.034;7.120;2023-05-01T01:38:59;100815.72;;;13.96;59.44
48015;BME280;33780;51.034;7.120;2023-05-01T01:41:32;100814.03;;;13.95;59.06
48015;BME280;33780;51.034;7.120;2023-05-01T01:44:03;100806.13;;;13.94;59.46
48015;BME280;33780;51.034;7.120;2023-05-01T01:46:36;100804.44;;;13.93;59.20
48015;BME280;33780;51.034;7.120;2023-05-01T01:49:05;100808.13;;;13.91;59.30
48015;BME280;33780;51.034;7.120;2023-05-01T01:51:31;100801.03;;;13.90;59.12
48015;BME280;33780;51.034;7.120;2023-05-01T01:53:57;100800.19;;;13.90;59.53
48015;BME280;33780;51.034;7.120;2023-05-01T01:56:25;100793.13;;;13.89;59.59
48015;BME280;33780;51.034;7.120;2023-05-01T01:58:52;100796.81;;;13.88;59.55
48015;BME280;33780;51.034;7.120;2023-05-01T02:01:18;100790.59;;;13.87;59.74
48015;BME280;33780;51.034;7.120;2023-05-01T02:03:45;100784.53;;;13.85;59.44
48015;BME280;33780;51.034;7.120;2023-05-01T02:06:12;100785.53;;;13.84;59.45
48015;BME280;33780;51.034;7.120;2023-05-01T02:08:39;100784.84;;;13.82;59.83
48015;BME280;33780;51.034;7.120;2023-05-01T02:11:06;100783.09;;;13.81;60.11
48015;BME280;33780;51.034;7.120;2023-05-01T02:13:34;100784.09;;;13.80;59.79
48015;BME280;33780;51.034;7.120;2023-05-01T02:16:01;100784.25;;;13.79;60.19
48015;BME280;33780;51.034;7.120;2023-05-01T02:18:27;100777.19;;;13.78;60.34
48015;BME280;33780;51.034;7.120;2023-05-01T02:20:55;100774.66;;;13.76;59.80
48015;BME280;33780;51.034;7.120;2023-05-01T02:23:21;100774.81;;;13.75;60.31
48015;BME280;33780;51.034;7.120;2023-05-01T02:25:49;100778.66;;;13.72;60.51
48015;BME280;33780;51.034;7.120;2023-05-01T02:28:20;100774.28;;;13.71;60.27
48015;BME280;33780;51.034;7.120;2023-05-01T02:30:47;100769.03;;;13.70;60.61
48015;BME280;33780;51.034;7.120;2023-05-01T02:33:12;100759.28;;;13.69;60.48
48015;BME280;33780;51.034;7.120;2023-05-01T02:35:39;100757.59;;;13.68;60.38
48015;BME280;33780;51.034;7.120;2023-05-01T02:38:05;100755.06;;;13.66;60.51
48015;BME280;33780;51.034;7.120;2023-05-01T02:40:30;100751.53;;;13.66;60.61
48015;BME280;33780;51.034;7.120;2023-05-01T02:42:57;100751.66;;;13.64;60.53
48015;BME280;33780;51.034;7.120;2023-05-01T02:45:24;100752.53;;;13.65;60.74
48015;BME280;33780;51.034;7.120;2023-05-01T02:47:55;100743.72;;;13.63;60.71
48015;BME280;33780;51.034;7.120;2023-05-01T02:50:22;100740.34;;;13.60;60.98
48015;BME280;33780;51.034;7.120;2023-05-01T02:52:48;100739.66;;;13.58;60.95
48015;BME280;33780;51.034;7.120;2023-05-01T02:55:14;100736.28;;;13.56;61.36
48015;BME280;33780;51.034;7.120;2023-05-01T02:57:40;100740.13;;;13.54;61.24
48015;BME280;33780;51.034;7.120;2023-05-01T03:00:06;100731.34;;;13.52;61.23
48015;BME280;33780;51.034;7.120;2023-05-01T03:02:33;100740.41;;;13.51;61.35
48015;BME280;33780;51.034;7.120;2023-05-01T03:04:58;100735.19;;;13.49;61.22
48015;BME280;33780;51.034;7.120;2023-05-01T03:07:23;100720.06;;;13.48;61.07
48015;BME280;33780;51.034;7.120;2023-05-01T03:09:49;100719.34;;;13.46;61.31
48015;BME280;33780;51.034;7.120;2023-05-01T03:12:14;100721.34;;;13.44;61.25
48015;BME280;33780;51.034;7.120;2023-05-01T03:14:39;100714.28;;;13.43;61.60
48015;BME280;33780;51.034;7.120;2023-05-01T03:17:05;100718.09;;;13.41;61.45
48015;BME280;33780;51.034;7.120;2023-05-01T03:19:30;100715.56;;;13.39;61.48
48015;BME280;33780;51.034;7.120;2023-05-01T03:21:55;100706.81;;;13.37;61.69
48015;BME280;33780;51.034;7.120;2023-05-01T03:24:20;100715.88;;;13.36;61.70
48015;BME280;33780;51.034;7.120;2023-05-01T03:26:46;100710.81;;;13.33;61.84
48015;BME280;33780;51.034;7.120;2023-05-01T03:29:11;100713.81;;;13.30;62.00
48015;BME280;33780;51.034;7.120;2023-05-01T03:31:37;100698.66;;;13.29;62.11
48015;BME280;33780;51.034;7.120;2023-05-01T03:34:02;100697.09;;;13.26;62.10
48015;BME280;33780;51.034;7.120;2023-05-01T03:36:28;100701.63;;;13.26;61.84
48015;BME280;33780;51.034;7.120;2023-05-01T03:38:53;100695.72;;;13.22;62.13
48015;BME280;33780;51.034;7.120;2023-05-01T03:41:18;100696.00;;;13.19;62.44
48015;BME280;33780;51.034;7.120;2023-05-01T03:43:43;100696.16;;;13.18;62.14
48015;BME280;33780;51.034;7.120;2023-05-01T03:46:09;100693.59;;;13.16;62.24
48015;BME280;33780;51.034;7.120;2023-05-01T03:48:34;100691.22;;;13.13;62.22
48015;BME280;33780;51.034;7.120;2023-05-01T03:50:59;100692.38;;;13.11;62.54
48015;BME280;33780;51.034;7.120;2023-05-01T03:53:24;100697.00;;;13.09;62.45
48015;BME280;33780;51.034;7.120;2023-05-01T03:55:50;100686.56;;;13.06;62.44
48015;BME280;33780;51.034;7.120;2023-05-01T03:58:15;100697.31;;;13.06;62.80
48015;BME280;33780;51.034;7.120;2023-05-01T04:00:40;100689.56;;;13.02;62.43
48015;BME280;33780;51.034;7.120;2023-05-01T04:03:06;100689.84;;;12.99;62.72
48015;BME280;33780;51.034;7.120;2023-05-01T04:05:31;100690.16;;;12.96;62.49
48015;BME280;33780;51.034;7.120;2023-05-01T04:07:57;100684.94;;;12.95;63.00
48015;BME280;33780;51.034;7.120;2023-05-01T04:10:22;100688.63;;;12.94;62.84
48015;BME280;33780;51.034;7.120;2023-05-01T04:12:48;100690.56;;;12.92;62.76
48015;BME280;33780;51.034;7.120;2023-05-01T04:15:13;100691.72;;;12.89;62.63
48015;BME280;33780;51.034;7.120;2023-05-01T04:17:39;100681.13;;;12.88;62.68
48015;BME280;33780;51.034;7.120;2023-05-01T04:20:04;100676.91;;;12.85;62.75
48015;BME280;33780;51.034;7.120;2023-05-01T04:22:31;100685.97;;;12.84;63.07
48015;BME280;33780;51.034;7.120;2023-05-01T04:24:56;100682.72;;;12.81;62.79
48015;BME280;33780;51.034;7.120;2023-05-01T04:27:21;100680.19;;;12.79;63.03
48015;BME280;33780;51.034;7.120;2023-05-01T04:29:46;100681.19;;;12.78;62.90
48015;BME280;33780;51.034;7.120;2023-05-01T04:32:12;100680.50;;;12.76;62.91
48015;BME280;33780;51.034;7.120;2023-05-01T04:34:37;100678.78;;;12.75;62.95
48015;BME280;33780;51.034;7.120;2023-05-01T04:37:03;100676.22;;;12.74;62.92
48015;BME280;33780;51.034;7.120;2023-05-01T04:39:28;100679.91;;;12.73;63.27
48015;BME280;33780;51.034;7.120;2023-05-01T04:41:53;100675.53;;;12.71;63.11
48015;BME280;33780;51.034;7.120;2023-05-01T04:44:19;100681.06;;;12.70;63.28
48015;BME280;33780;51.034;7.120;2023-05-01T04:46:44;100682.91;;;12.69;63.47
48015;BME280;33780;51.034;7.120;2023-05-01T04:49:10;100679.50;;;12.67;63.15
48015;BME280;33780;51.034;7.120;2023-05-01T04:51:35;100679.50;;;12.67;63.49
48015;BME280;33780;51.034;7.120;2023-05-01T04:54:01;100687.56;;;12.67;63.45
48015;BME280;33780;51.034;7.120;2023-05-01T04:56:26;100687.56;;;12.67;63.27
48015;BME280;33780;51.034;7.120;2023-05-01T04:58:51;100680.50;;;12.66;63.23
48015;BME280;33780;51.034;7.120;2023-05-01T05:01:17;100686.72;;;12.67;63.64
48015;BME280;33780;51.034;7.120;2023-05-01T05:03:42;100684.03;;;12.67;63.32
48015;BME280;33780;51.034;7.120;2023-05-01T05:06:07;100675.84;;;12.68;63.42
48015;BME280;33780;51.034;7.120;2023-05-01T05:08:33;100683.88;;;12.68;62.99
48015;BME280;33780;51.034;7.120;2023-05-01T05:10:59;100680.06;;;12.71;63.50
48015;BME280;33780;51.034;7.120;2023-05-01T05:13:25;100683.59;;;12.71;63.34
48015;BME280;33780;51.034;7.120;2023-05-01T05:15:50;100681.59;;;12.74;63.15
48015;BME280;33780;51.034;7.120;2023-05-01T05:18:15;100687.81;;;12.74;63.29
48015;BME280;33780;51.034;7.120;2023-05-01T05:20:41;100683.16;;;12.76;63.37
48015;BME280;33780;51.034;7.120;2023-05-01T05:23:06;100674.97;;;12.78;63.38
48015;BME280;33780;51.034;7.120;2023-05-01T05:25:31;100684.56;;;12.80;63.37
48015;BME280;33780;51.034;7.120;2023-05-01T05:27:57;100679.03;;;12.82;63.10
48015;BME280;33780;51.034;7.120;2023-05-01T05:30:25;100688.66;;;12.84;63.36
48015;BME280;33780;51.034;7.120;2023-05-01T05:32:50;100683.13;;;12.86;63.38
48015;BME280;33780;51.034;7.120;2023-05-01T05:35:15;100687.34;;;12.88;63.51
48015;BME280;33780;51.034;7.120;2023-05-01T05:37:41;100684.50;;;12.90;62.98
48015;BME280;33780;51.034;7.120;2023-05-01T05:40:06;100685.09;;;12.93;62.92
48015;BME280;33780;51.034;7.120;2023-05-01T05:42:32;100680.56;;;12.94;63.08
48015;BME280;33780;51.034;7.120;2023-05-01T05:44:58;100675.03;;;12.95;62.91
48015;BME280;33780;51.034;7.120;2023-05-01T05:47:23;100680.09;;;12.98;62.69
48015;BME280;33780;51.034;7.120;2023-05-01T05:49:48;100677.13;;;13.01;62.68
48015;BME280;33780;51.034;7.120;2023-05-01T05:52:14;100683.03;;;13.05;62.79
48015;BME280;33780;51.034;7.120;2023-05-01T05:54:39;100681.88;;;13.08;62.89
48015;BME280;33780;51.034;7.120;2023-05-01T05:57:04;100679.78;;;13.11;62.59
48015;BME280;33780;51.034;7.120;2023-05-01T05:59:29;100676.78;;;13.14;62.58
48015;BME280;33780;51.034;7.120;2023-05-01T06:01:55;100672.94;;;13.17;62.60
48015;BME280;33780;51.034;7.120;2023-05-01T06:04:20;100675.38;;;13.20;62.67
48015;BME280;33780;51.034;7.120;2023-05-01T06:06:46;100673.22;;;13.23;62.12
48015;BME280;33780;51.034;7.120;2023-05-01T06:09:12;100677.16;;;13.29;62.19
48015;BME280;33780;51.034;7.120;2023-05-01T06:11:38;100675.03;;;13.33;62.31
48015;BME280;33780;51.034;7.120;2023-05-01T06:14:04;100672.88;;;13.36;62.31
48015;BME280;33780;51.034;7.120;2023-05-01T06:16:29;100682.47;;;13.39;62.30
48015;BME280;33780;51.034;7.120;2023-05-01T06:18:54;100677.47;;;13.44;62.42
48015;BME280;33780;51.034;7.120;2023-05-01T06:21:19;100672.78;;;13.46;62.44
48015;BME280;33780;51.034;7.120;2023-05-01T06:23:45;100678.59;;;13.51;62.09
48015;BME280;33780;51.034;7.120;2023-05-01T06:26:10;100674.59;;;13.55;62.19
48015;BME280;33780;51.034;7.120;2023-05-01T06:28:36;100668.75;;;13.59;62.24
48015;BME280;33780;51.034;7.120;2023-05-01T06:31:02;100666.47;;;13.65;62.32
48015;BME280;33780;51.034;7.120;2023-05-01T06:33:27;100671.22;;;13.71;62.29
48015;BME280;33780;51.034;7.120;2023-05-01T06:35:52;100669.06;;;13.74;62.02
48015;BME280;33780;51.034;7.120;2023-05-01T06:38:18;100670.44;;;13.78;62.26
48015;BME280;33780;51.034;7.120;2023-05-01T06:40:44;100669.16;;;13.82;61.96
48015;BME280;33780;51.034;7.120;2023-05-01T06:43:11;100666.00;;;13.87;62.49
48015;BME280;33780;51.034;7.120;2023-05-01T06:45:36;100661.84;;;13.93;62.19
48015;BME280;33780;51.034;7.120;2023-05-01T06:48:04;100667.59;;;13.98;62.52
48015;BME280;33780;51.034;7.120;2023-05-01T06:50:29;100664.31;;;14.04;62.44
48015;BME280;33780;51.034;7.120;2023-05-01T06:52:54;100660.97;;;14.10;62.65
48015;BME280;33780;51.034;7.120;2023-05-01T06:55:20;100659.50;;;14.15;61.71
48015;BME280;33780;51.034;7.120;2023-05-01T06:57:45;100651.81;;;14.20;60.85
48015;BME280;33780;51.034;7.120;2023-05-01T07:00:11;100653.03;;;14.26;60.95
48015;BME280;33780;51.034;7.120;2023-05-01T07:02:36;100653.22;;;14.33;60.79
48015;BME280;33780;51.034;7.120;2023-05-01T07:05:02;100656.31;;;14.38;60.45
48015;BME280;33780;51.034;7.120;2023-05-01T07:07:28;100653.00;;;14.44;59.75
48015;BME280;33780;51.034;7.120;2023-05-01T07:09:54;100654.22;;;14.49;59.53
48015;BME280;33780;51.034;7.120;2023-05-01T07:12:20;100647.50;;;14.54;59.58
48015;BME280;33780;51.034;7.120;2023-05-01T07:14:46;100646.91;;;14.60;58.82
48015;BME280;33780;51.034;7.120;2023-05-01T07:17:12;100649.78;;;14.66;58.52
48015;BME280;33780;51.034;7.120;2023-05-01T07:19:37;100653.53;;;14.73;58.38
48015;BME280;33780;51.034;7.120;2023-05-01T07:22:02;100650.19;;;14.79;58.11
48015;BME280;33780;51.034;7.120;2023-05-01T07:24:28;100638.75;;;14.86;57.94
48015;BME280;33780;51.034;7.120;2023-05-01T07:26:54;100643.53;;;14.92;58.22
48015;BME280;33780;51.034;7.120;2023-05-01T07:29:20;100647.41;;;14.97;57.95
48015;BME280;33780;51.034;7.120;2023-05-01T07:31:45;100640.34;;;15.04;57.57
48015;BME280;33780;51.034;7.120;2023-05-01T07:34:12;100651.34;;;15.11;57.42
48015;BME280;33780;51.034;7.120;2023-05-01T07:36:37;100652.53;;;15.17;57.24
48015;BME280;33780;51.034;7.120;2023-05-01T07:39:03;100644.81;;;15.22;57.16
48015;BME280;33780;51.034;7.120;2023-05-01T07:41:29;100642.31;;;15.28;56.67
48015;BME280;33780;51.034;7.120;2023-05-01T07:43:57;100640.81;;;15.34;56.75
48015;BME280;33780;51.034;7.120;2023-05-01T07:46:22;100633.91;;;15.39;56.39
48015;BME280;33780;51.034;7.120;2023-05-01T07:48:48;100644.06;;;15.46;56.41
48015;BME280;33780;51.034;7.120;2023-05-01T07:51:13;100633.75;;;15.49;55.79
48015;BME280;33780;51.034;7.120;2023-05-01T07:53:38;100634.28;;;15.53;55.57
48015;BME280;33780;51.034;7.120;2023-05-01T07:56:07;100635.63;;;15.57;55.36
48015;BME280;33780;51.034;7.120;2023-05-01T07:58:33;100647.13;;;15.59;54.86
48015;BME280;33780;51.034;7.120;2023-05-01T08:00:59;100637.72;;;15.63;54.69
48015;BME280;33780;51.034;7.120;2023-05-01T08:03:26;100643.59;;;15.66;54.60
48015;BME280;33780;51.034;7.120;2023-05-01T08:05:52;100638.88;;;15.68;54.43
48015;BME280;33780;51.034;7.120;2023-05-01T08:08:17;100639.38;;;15.72;54.27
48015;BME280;33780;51.034;7.120;2023-05-01T08:10:44;100632.81;;;15.75;54.17
48015;BME280;33780;51.034;7.120;2023-05-01T08:13:10;100628.75;;;15.79;54.00
48015;BME280;33780;51.034;7.120;2023-05-01T08:15:35;100636.53;;;15.82;53.96
48015;BME280;33780;51.034;7.120;2023-05-01T08:18:03;100625.41;;;15.85;53.59
48015;BME280;33780;51.034;7.120;2023-05-01T08:20:28;100627.78;;;15.88;53.43
48015;BME280;33780;51.034;7.120;2023-05-01T08:22:54;100628.44;;;15.90;53.52
48015;BME280;33780;51.034;7.120;2023-05-01T08:25:19;100631.81;;;15.92;53.03
48015;BME280;33780;51.034;7.120;2023-05-01T08:27:44;100636.03;;;15.94;53.23
48015;BME280;33780;51.034;7.120;2023-05-01T08:30:10;100625.59;;;15.99;53.27
48015;BME280;33780;51.034;7.120;2023-05-01T08:32:35;100625.06;;;16.04;53.44
48015;BME280;33780;51.034;7.120;2023-05-01T08:35:00;100630.78;;;16.09;52.97
48015;BME280;33780;51.034;7.120;2023-05-01T08:37:25;100624.88;;;16.14;52.85
48015;BME280;33780;51.034;7.120;2023-05-01T08:39:51;100626.06;;;16.19;52.91
48015;BME280;33780;51.034;7.120;2023-05-01T08:42:17;100624.72;;;16.23;53.06
48015;BME280;33780;51.034;7.120;2023-05-01T08:44:42;100630.63;;;16.27;52.86
48015;BME280;33780;51.034;7.120;2023-05-01T08:47:14;100622.84;;;16.32;52.99
48015;BME280;33780;51.034;7.120;2023-05-01T08:49:41;100623.19;;;16.37;52.61
48015;BME280;33780;51.034;7.120;2023-05-01T08:52:07;100622.84;;;16.40;52.60
48015;BME280;33780;51.034;7.120;2023-05-01T08:54:34;100618.78;;;16.44;52.83
48015;BME280;33780;51.034;7.120;2023-05-01T08:57:02;100628.88;;;16.50;52.40
48015;BME280;33780;51.034;7.120;2023-05-01T08:59:29;100627.53;;;16.54;52.35
48015;BME280;33780;51.034;7.120;2023-05-01T09:01:59;100615.19;;;16.60;52.58
48015;BME280;33780;51.034;7.120;2023-05-01T09:04:25;100627.16;;;16.66;52.40
48015;BME280;33780;51.034;7.120;2023-05-01T09:06:53;100623.97;;;16.70;52.54
48015;BME280;33780;51.034;7.120;2023-05-01T09:09:19;100623.81;;;16.72;51.46
48015;BME280;33780;51.034;7.120;2023-05-01T09:11:44;100623.44;;;16.75;51.59
48015;BME280;33780;51.034;7.120;2023-05-01T09:14:10;100620.41;;;16.78;51.86
48015;BME280;33780;51.034;7.120;2023-05-01T09:16:35;100618.84;;;16.83;52.06
48015;BME280;33780;51.034;7.120;2023-05-01T09:19:01;100615.66;;;16.88;51.77
48015;BME280;33780;51.034;7.120;2023-05-01T09:21:27;100619.31;;;16.95;52.14
48015;BME280;33780;51.034;7.120;2023-05-01T09:23:53;100619.44;;;17.02;51.95
48015;BME280;33780;51.034;7.120;2023-05-01T09:26:18;100611.66;;;17.07;51.49
48015;BME280;33780;51.034;7.120;2023-05-01T09:28:45;100613.00;;;17.11;51.76
48015;BME280;33780;51.034;7.120;2023-05-01T09:31:30;100616.00;;;17.16;51.70
48015;BME280;33780;51.034;7.120;2023-05-01T09:34:00;100620.53;;;17.24;51.79
48015;BME280;33780;51.034;7.120;2023-05-01T09:36:31;100616.94;;;17.31;51.23
48015;BME280;33780;51.034;7.120;2023-05-01T09:38:57;100609.97;;;17.37;50.65
48015;BME280;33780;51.034;7.120;2023-05-01T09:41:24;100604.00;;;17.41;50.95
48015;BME280;33780;51.034;7.120;2023-05-01T09:43:51;100605.38;;;17.45;50.94
48015;BME280;33780;51.034;7.120;2023-05-01T09:46:17;100608.72;;;17.47;50.38
48015;BME280;33780;51.034;7.120;2023-05-01T09:48:54;100604.81;;;17.50;50.51
48015;BME280;33780;51.034;7.120;2023-05-01T09:53:45;100600.72;;;17.54;50.19
48015;BME280;33780;51.034;7.120;2023-05-01T09:56:11;100598.31;;;17.59;50.38
48015;BME280;33780;51.034;7.120;2023-05-01T09:58:36;100600.50;;;17.64;50.75
48015;BME280;33780;51.034;7.120;2023-05-01T10:01:01;100604.56;;;17.68;50.75
48015;BME280;33780;51.034;7.120;2023-05-01T10:03:27;100600.44;;;17.72;50.56
48015;BME280;33780;51.034;7.120;2023-05-01T10:05:52;100602.78;;;17.75;50.45
48015;BME280;33780;51.034;7.120;2023-05-01T10:08:20;100604.31;;;17.77;50.39
48015;BME280;33780;51.034;7.120;2023-05-01T10:10:58;100601.06;;;17.82;51.06
48015;BME280;33780;51.034;7.120;2023-05-01T10:13:24;100601.72;;;17.84;50.90
48015;BME280;33780;51.034;7.120;2023-05-01T10:15:49;100600.50;;;17.87;50.92
48015;BME280;33780;51.034;7.120;2023-05-01T10:18:15;100594.06;;;17.88;50.78
48015;BME280;33780;51.034;7.120;2023-05-01T10:20:41;100595.75;;;17.89;50.42
48015;BME280;33780;51.034;7.120;2023-05-01T10:23:06;100594.53;;;17.91;50.45
48015;BME280;33780;51.034;7.120;2023-05-01T10:25:32;100589.78;;;17.93;50.00
48015;BME280;33780;51.034;7.120;2023-05-01T10:27:58;100595.00;;;17.95;50.41
48015;BME280;33780;51.034;7.120;2023-05-01T10:30:27;100586.56;;;17.98;50.15
48015;BME280;33780;51.034;7.120;2023-05-01T10:32:54;100588.03;;;18.00;50.63
48015;BME280;33780;51.034;7.120;2023-05-01T10:35:25;100587.66;;;18.03;50.48
48015;BME280;33780;51.034;7.120;2023-05-01T10:37:59;100578.34;;;18.06;50.38
48015;BME280;33780;51.034;7.120;2023-05-01T10:43:25;100573.31;;;18.18;50.02
48015;BME280;33780;51.034;7.120;2023-05-01T10:53:44;100558.09;;;18.46;48.48
48015;BME280;33780;51.034;7.120;2023-05-01T10:58:59;100564.56;;;18.60;47.72
48015;BME280;33780;51.034;7.120;2023-05-01T11:01:36;100561.78;;;18.68;47.45
48015;BME280;33780;51.034;7.120;2023-05-01T11:09:51;100556.69;;;18.94;45.85
48015;BME280;33780;51.034;7.120;2023-05-01T11:15:10;100548.06;;;19.06;45.73
48015;BME280;33780;51.034;7.120;2023-05-01T11:20:51;100545.63;;;19.11;43.85
48015;BME280;33780;51.034;7.120;2023-05-01T11:22:57;100535.88;;;19.16;44.04
48015;BME280;33780;51.034;7.120;2023-05-01T11:25:27;100540.53;;;19.22;44.53
48015;BME280;33780;51.034;7.120;2023-05-01T11:27:56;100545.19;;;19.28;45.60
48015;BME280;33780;51.034;7.120;2023-05-01T11:30:22;100541.50;;;19.36;45.07
48015;BME280;33780;51.034;7.120;2023-05-01T11:32:49;100537.63;;;19.45;44.66
48015;BME280;33780;51.034;7.120;2023-05-01T11:35:18;100537.50;;;19.53;43.99
48015;BME280;33780;51.034;7.120;2023-05-01T11:37:44;100534.06;;;19.59;42.34
48015;BME280;33780;51.034;7.120;2023-05-01T11:40:21;100537.00;;;19.65;43.55
48015;BME280;33780;51.034;7.120;2023-05-01T11:42:47;100539.53;;;19.66;43.04
48015;BME280;33780;51.034;7.120;2023-05-01T11:45:13;100539.34;;;19.68;43.11
48015;BME280;33780;51.034;7.120;2023-05-01T11:47:38;100542.88;;;19.68;43.14
48015;BME280;33780;51.034;7.120;2023-05-01T11:50:05;100539.97;;;19.70;42.61
48015;BME280;33780;51.034;7.120;2023-05-01T11:52:40;100543.53;;;19.70;42.45
48015;BME280;33780;51.034;7.120;2023-05-01T11:55:06;100534.75;;;19.68;41.40
48015;BME280;33780;51.034;7.120;2023-05-01T11:57:50;100532.88;;;19.69;42.38
48015;BME280;33780;51.034;7.120;2023-05-01T12:00:25;100524.53;;;19.70;41.22
48015;BME280;33780;51.034;7.120;2023-05-01T12:03:01;100530.78;;;19.71;40.92
48015;BME280;33780;51.034;7.120;2023-05-01T12:05:29;100532.03;;;19.68;40.19
48015;BME280;33780;51.034;7.120;2023-05-01T12:08:17;100531.78;;;19.63;35.22
48015;BME280;33780;51.034;7.120;2023-05-01T12:10:44;100529.06;;;19.63;39.93
48015;BME280;33780;51.034;7.120;2023-05-01T12:13:12;100532.03;;;19.68;40.43
48015;BME280;33780;51.034;7.120;2023-05-01T12:15:41;100527.44;;;19.69;39.75
48015;BME280;33780;51.034;7.120;2023-05-01T12:18:07;100522.66;;;19.71;38.83
48015;BME280;33780;51.034;7.120;2023-05-01T12:20:41;100520.19;;;19.76;39.46
48015;BME280;33780;51.034;7.120;2023-05-01T12:23:09;100520.19;;;19.76;39.13
48015;BME280;33780;51.034;7.120;2023-05-01T12:25:39;100513.53;;;19.78;39.27
48015;BME280;33780;51.034;7.120;2023-05-01T12:28:18;100512.94;;;19.83;39.73
48015;BME280;33780;51.034;7.120;2023-05-01T12:30:45;100514.22;;;19.87;39.66
48015;BME280;33780;51.034;7.120;2023-05-01T12:33:15;100509.41;;;19.89;39.81
48015;BME280;33780;51.034;7.120;2023-05-01T12:35:42;100515.28;;;19.92;40.04
48015;BME280;33780;51.034;7.120;2023-05-01T12:38:14;100512.84;;;19.98;39.42
48015;BME280;33780;51.034;7.120;2023-05-01T12:40:49;100511.41;;;20.02;39.84
48015;BME280;33780;51.034;7.120;2023-05-01T12:43:16;100513.72;;;20.05;39.70
48015;BME280;33780;51.034;7.120;2023-05-01T12:45:41;100514.16;;;20.08;39.77
48015;BME280;33780;51.034;7.120;2023-05-01T12:48:13;100512.94;;;20.11;39.31
48015;BME280;33780;51.034;7.120;2023-05-01T12:50:40;100510.22;;;20.11;39.73
48015;BME280;33780;51.034;7.120;2023-05-01T12:53:06;100512.75;;;20.12;39.85
48015;BME280;33780;51.034;7.120;2023-05-01T12:55:42;100512.75;;;20.12;39.63
48015;BME280;33780;51.034;7.120;2023-05-01T12:58:08;100504.59;;;20.12;40.19
48015;BME280;33780;51.034;7.120;2023-05-01T13:00:50;100497.47;;;20.11;39.74
48015;BME280;33780;51.034;7.120;2023-05-01T13:03:24;100493.94;;;20.11;39.84
48015;BME280;33780;51.034;7.120;2023-05-01T13:08:31;100501.03;;;20.12;39.52
48015;BME280;33780;51.034;7.120;2023-05-01T13:10:59;100497.28;;;20.13;39.10
48015;BME280;33780;51.034;7.120;2023-05-01T13:13:29;100497.06;;;20.14;38.74
48015;BME280;33780;51.034;7.120;2023-05-01T13:16:10;100497.50;;;20.18;39.32
48015;BME280;33780;51.034;7.120;2023-05-01T13:21:12;100490.44;;;20.23;39.08
48015;BME280;33780;51.034;7.120;2023-05-01T13:23:38;100489.19;;;20.26;38.17
48015;BME280;33780;51.034;7.120;2023-05-01T13:26:08;100481.50;;;20.30;39.10
48015;BME280;33780;51.034;7.120;2023-05-01T13:28:35;100490.31;;;20.38;39.18
48015;BME280;33780;51.034;7.120;2023-05-01T13:31:13;100486.59;;;20.46;36.26